sensor_id;sensor_type;location;lat;lon;timestamp;P1;durP1;ratioP1;P2;durP2;ratioP2
7426;SDS011;3755;59.316;18.092;2023-02-01T00:00:01;9.33;;;2.47;;
7426;SDS011;3755;59.316;18.092;2023-02-01T00:02:45;8.80;;;2.93;;
7426;SDS011;3755;59.316;18.092;2023-02-01T00:05:15;10.90;;;2.80;;
7426;SDS011;3755;59.316;18.092;2023-02-01T00:07:44;9.13;;;2.50;;
7426;SDS011;3755;59.316;18.092;2023-02-01T00:10:28;4.57;;;2.30;;
7426;SDS011;3755;59.316;18.092;2023-02-01T00:12:59;8.73;;;2.50;;
7426;SDS011;3755;59.316;18.092;2023-02-01T00:15:26;6.87;;;2.83;;
7426;SDS011;3755;59.316;18.092;2023-02-01T00:17:58;9.00;;;2.60;;
7426;SDS011;3755;59.316;18.092;2023-02-01T00:20:45;8.90;;;2.57;;
7426;SDS011;3755;59.316;18.092;2023-02-01T00:23:16;10.60;;;2.40;;
7426;SDS011;3755;59.316;18.092;2023-02-01T00:25:48;9.07;;;2.63;;
7426;SDS011;3755;59.316;18.092;2023-02-01T00:28:31;7.13;;;2.50;;
7426;SDS011;3755;59.316;18.092;2023-02-01T00:31:06;6.87;;;2.43;;
7426;SDS011;3755;59.316;18.092;2023-02-01T00:33:37;9.40;;;2.50;;
7426;SDS011;3755;59.316;18.092;2023-02-01T00:36:06;6.27;;;2.70;;
7426;SDS011;3755;59.316;18.092;2023-02-01T00:38:36;7.03;;;2.30;;
7426;SDS011;3755;59.316;18.092;2023-02-01T00:41:10;12.33;;;2.63;;
7426;SDS011;3755;59.316;18.092;2023-02-01T00:43:49;5.17;;;2.00;;
7426;SDS011;3755;59.316;18.092;2023-02-01T00:46:18;5.97;;;2.37;;
7426;SDS011;3755;59.316;18.092;2023-02-01T00:48:49;7.43;;;2.27;;
7426;SDS011;3755;59.316;18.092;2023-02-01T00:51:31;7.63;;;2.30;;
7426;SDS011;3755;59.316;18.092;2023-02-01T00:54:01;8.57;;;2.63;;
7426;SDS011;3755;59.316;18.092;2023-02-01T00:56:35;6.70;;;2.53;;
7426;SDS011;3755;59.316;18.092;2023-02-01T00:59:16;6.97;;;2.10;;
7426;SDS011;3755;59.316;18.092;2023-02-01T01:01:44;12.10;;;2.80;;
7426;SDS011;3755;59.316;18.092;2023-02-01T01:04:16;4.83;;;3.00;;
7426;SDS011;3755;59.316;18.092;2023-02-01T01:06:44;5.93;;;2.87;;
7426;SDS011;3755;59.316;18.092;2023-02-01T01:09:11;11.77;;;2.70;;
7426;SDS011;3755;59.316;18.092;2023-02-01T01:11:40;8.07;;;2.97;;
7426;SDS011;3755;59.316;18.092;2023-02-01T01:14:10;12.70;;;2.77;;
7426;SDS011;3755;59.316;18.092;2023-02-01T01:16:38;4.87;;;2.83;;
7426;SDS011;3755;59.316;18.092;2023-02-01T01:19:06;10.27;;;2.87;;
7426;SDS011;3755;59.316;18.092;2023-02-01T01:21:38;8.87;;;3.73;;
7426;SDS011;3755;59.316;18.092;2023-02-01T01:24:08;12.53;;;2.73;;
7426;SDS011;3755;59.316;18.092;2023-02-01T01:26:36;12.27;;;2.90;;
7426;SDS011;3755;59.316;18.092;2023-02-01T01:29:04;9.27;;;2.70;;
7426;SDS011;3755;59.316;18.092;2023-02-01T01:31:33;8.53;;;2.77;;
7426;SDS011;3755;59.316;18.092;2023-02-01T01:34:02;8.10;;;3.00;;
7426;SDS011;3755;59.316;18.092;2023-02-01T01:36:30;9.10;;;2.77;;
7426;SDS011;3755;59.316;18.092;2023-02-01T01:39:01;7.97;;;2.67;;
7426;SDS011;3755;59.316;18.092;2023-02-01T01:41:29;6.40;;;2.17;;
7426;SDS011;3755;59.316;18.092;2023-02-01T01:43:59;6.73;;;2.13;;
7426;SDS011;3755;59.316;18.092;2023-02-01T01:46:28;9.20;;;2.40;;
7426;SDS011;3755;59.316;18.092;2023-02-01T01:49:00;14.77;;;2.83;;
7426;SDS011;3755;59.316;18.092;2023-02-01T01:51:33;6.13;;;2.20;;
7426;SDS011;3755;59.316;18.092;2023-02-01T01:54:12;9.00;;;2.57;;
7426;SDS011;3755;59.316;18.092;2023-02-01T01:56:46;6.17;;;2.27;;
7426;SDS011;3755;59.316;18.092;2023-02-01T01:59:18;12.37;;;3.17;;
7426;SDS011;3755;59.316;18.092;2023-02-01T02:01:47;7.93;;;2.40;;
7426;SDS011;3755;59.316;18.092;2023-02-01T02:04:16;10.27;;;2.33;;
7426;SDS011;3755;59.316;18.092;2023-02-01T02:06:47;11.67;;;2.97;;
7426;SDS011;3755;59.316;18.092;2023-02-01T02:09:20;6.87;;;2.50;;
7426;SDS011;3755;59.316;18.092;2023-02-01T02:11:53;8.10;;;2.47;;
7426;SDS011;3755;59.316;18.092;2023-02-01T02:14:26;8.30;;;2.70;;
7426;SDS011;3755;59.316;18.092;2023-02-01T02:17:19;3.83;;;1.73;;
7426;SDS011;3755;59.316;18.092;2023-02-01T02:26:25;11.00;;;2.70;;
7426;SDS011;3755;59.316;18.092;2023-02-01T02:35:44;6.67;;;2.80;;
7426;SDS011;3755;59.316;18.092;2023-02-01T02:38:19;9.07;;;2.57;;
7426;SDS011;3755;59.316;18.092;2023-02-01T02:40:59;8.53;;;2.60;;
7426;SDS011;3755;59.316;18.092;2023-02-01T02:43:57;7.30;;;2.93;;
7426;SDS011;3755;59.316;18.092;2023-02-01T02:46:46;10.73;;;2.87;;
7426;SDS011;3755;59.316;18.092;2023-02-01T02:49:36;9.47;;;2.50;;
7426;SDS011;3755;59.316;18.092;2023-02-01T02:52:12;10.47;;;3.07;;
7426;SDS011;3755;59.316;18.092;2023-02-01T02:55:00;7.50;;;2.57;;
7426;SDS011;3755;59.316;18.092;2023-02-01T02:57:32;9.87;;;2.57;;
7426;SDS011;3755;59.316;18.092;2023-02-01T03:00:21;9.93;;;2.70;;
7426;SDS011;3755;59.316;18.092;2023-02-01T03:03:09;9.43;;;3.23;;
7426;SDS011;3755;59.316;18.092;2023-02-01T03:05:53;6.70;;;2.67;;
7426;SDS011;3755;59.316;18.092;2023-02-01T03:08:23;5.97;;;2.70;;
7426;SDS011;3755;59.316;18.092;2023-02-01T03:10:55;4.97;;;3.03;;
7426;SDS011;3755;59.316;18.092;2023-02-01T03:13:30;13.40;;;3.27;;
7426;SDS011;3755;59.316;18.092;2023-02-01T03:16:03;12.83;;;3.43;;
7426;SDS011;3755;59.316;18.092;2023-02-01T03:18:36;10.27;;;3.07;;
7426;SDS011;3755;59.316;18.092;2023-02-01T03:21:12;12.37;;;2.80;;
7426;SDS011;3755;59.316;18.092;2023-02-01T03:23:49;8.13;;;2.47;;
7426;SDS011;3755;59.316;18.092;2023-02-01T03:26:20;5.13;;;2.70;;
7426;SDS011;3755;59.316;18.092;2023-02-01T03:28:52;6.80;;;2.80;;
7426;SDS011;3755;59.316;18.092;2023-02-01T03:31:23;8.40;;;2.63;;
7426;SDS011;3755;59.316;18.092;2023-02-01T03:33:56;9.10;;;3.17;;
7426;SDS011;3755;59.316;18.092;2023-02-01T03:36:25;4.17;;;2.17;;
7426;SDS011;3755;59.316;18.092;2023-02-01T03:39:00;7.00;;;2.77;;
7426;SDS011;3755;59.316;18.092;2023-02-01T03:41:35;7.57;;;3.00;;
7426;SDS011;3755;59.316;18.092;2023-02-01T03:44:09;7.77;;;2.77;;
7426;SDS011;3755;59.316;18.092;2023-02-01T03:46:41;6.57;;;2.80;;
7426;SDS011;3755;59.316;18.092;2023-02-01T03:49:14;7.90;;;2.63;;
7426;SDS011;3755;59.316;18.092;2023-02-01T03:51:46;8.13;;;3.20;;
7426;SDS011;3755;59.316;18.092;2023-02-01T03:54:18;7.10;;;3.03;;
7426;SDS011;3755;59.316;18.092;2023-02-01T03:56:47;6.67;;;2.57;;
7426;SDS011;3755;59.316;18.092;2023-02-01T03:59:17;7.57;;;2.40;;
7426;SDS011;3755;59.316;18.092;2023-02-01T04:01:45;9.30;;;2.97;;
7426;SDS011;3755;59.316;18.092;2023-02-01T04:04:12;9.00;;;2.40;;
7426;SDS011;3755;59.316;18.092;2023-02-01T04:06:45;10.63;;;3.07;;
7426;SDS011;3755;59.316;18.092;2023-02-01T04:09:12;12.63;;;2.80;;
7426;SDS011;3755;59.316;18.092;2023-02-01T04:11:41;8.03;;;2.90;;
7426;SDS011;3755;59.316;18.092;2023-02-01T04:14:08;8.10;;;3.00;;
7426;SDS011;3755;59.316;18.092;2023-02-01T04:16:36;7.10;;;2.57;;
7426;SDS011;3755;59.316;18.092;2023-02-01T04:19:08;8.57;;;2.80;;
7426;SDS011;3755;59.316;18.092;2023-02-01T04:21:37;9.07;;;3.00;;
7426;SDS011;3755;59.316;18.092;2023-02-01T04:24:05;14.87;;;2.80;;
7426;SDS011;3755;59.316;18.092;2023-02-01T04:26:35;8.33;;;2.57;;
7426;SDS011;3755;59.316;18.092;2023-02-01T04:29:04;10.50;;;2.90;;
7426;SDS011;3755;59.316;18.092;2023-02-01T04:31:32;10.33;;;3.10;;
7426;SDS011;3755;59.316;18.092;2023-02-01T04:34:02;8.20;;;2.97;;
7426;SDS011;3755;59.316;18.092;2023-02-01T04:36:30;9.63;;;2.80;;
7426;SDS011;3755;59.316;18.092;2023-02-01T04:39:02;12.27;;;3.07;;
7426;SDS011;3755;59.316;18.092;2023-02-01T04:41:30;9.37;;;2.83;;
7426;SDS011;3755;59.316;18.092;2023-02-01T04:43:57;11.43;;;2.83;;
7426;SDS011;3755;59.316;18.092;2023-02-01T04:46:29;11.23;;;2.83;;
7426;SDS011;3755;59.316;18.092;2023-02-01T04:49:00;11.17;;;2.93;;
7426;SDS011;3755;59.316;18.092;2023-02-01T04:51:30;11.20;;;2.73;;
7426;SDS011;3755;59.316;18.092;2023-02-01T04:53:58;8.93;;;2.50;;
7426;SDS011;3755;59.316;18.092;2023-02-01T04:56:25;7.37;;;2.83;;
7426;SDS011;3755;59.316;18.092;2023-02-01T04:58:52;10.80;;;3.33;;
7426;SDS011;3755;59.316;18.092;2023-02-01T05:01:20;10.07;;;2.90;;
7426;SDS011;3755;59.316;18.092;2023-02-01T05:03:54;16.27;;;3.27;;
7426;SDS011;3755;59.316;18.092;2023-02-01T05:06:22;12.73;;;3.00;;
7426;SDS011;3755;59.316;18.092;2023-02-01T05:08:51;16.97;;;3.67;;
7426;SDS011;3755;59.316;18.092;2023-02-01T05:11:21;7.83;;;3.10;;
7426;SDS011;3755;59.316;18.092;2023-02-01T05:14:05;9.77;;;2.93;;
7426;SDS011;3755;59.316;18.092;2023-02-01T05:16:47;8.27;;;2.93;;
7426;SDS011;3755;59.316;18.092;2023-02-01T05:19:17;9.03;;;2.97;;
7426;SDS011;3755;59.316;18.092;2023-02-01T05:21:44;9.70;;;3.07;;
7426;SDS011;3755;59.316;18.092;2023-02-01T05:24:12;11.47;;;2.93;;
7426;SDS011;3755;59.316;18.092;2023-02-01T05:26:44;7.87;;;2.67;;
7426;SDS011;3755;59.316;18.092;2023-02-01T05:29:12;9.83;;;2.67;;
7426;SDS011;3755;59.316;18.092;2023-02-01T05:31:40;13.73;;;3.53;;
7426;SDS011;3755;59.316;18.092;2023-02-01T05:34:08;8.57;;;2.90;;
7426;SDS011;3755;59.316;18.092;2023-02-01T05:36:36;9.83;;;3.00;;
7426;SDS011;3755;59.316;18.092;2023-02-01T05:39:04;13.60;;;3.37;;
7426;SDS011;3755;59.316;18.092;2023-02-01T05:41:31;11.30;;;3.67;;
7426;SDS011;3755;59.316;18.092;2023-02-01T05:43:59;16.70;;;3.53;;
7426;SDS011;3755;59.316;18.092;2023-02-01T05:46:26;7.57;;;3.60;;
7426;SDS011;3755;59.316;18.092;2023-02-01T05:48:54;10.47;;;2.77;;
7426;SDS011;3755;59.316;18.092;2023-02-01T05:51:23;7.63;;;3.20;;
7426;SDS011;3755;59.316;18.092;2023-02-01T05:53:52;11.07;;;2.90;;
7426;SDS011;3755;59.316;18.092;2023-02-01T05:56:21;11.47;;;2.57;;
7426;SDS011;3755;59.316;18.092;2023-02-01T05:58:50;9.57;;;2.70;;
7426;SDS011;3755;59.316;18.092;2023-02-01T06:01:22;6.20;;;2.50;;
7426;SDS011;3755;59.316;18.092;2023-02-01T06:03:56;9.43;;;2.37;;
7426;SDS011;3755;59.316;18.092;2023-02-01T06:06:25;11.03;;;2.87;;
7426;SDS011;3755;59.316;18.092;2023-02-01T06:11:57;8.83;;;2.47;;
7426;SDS011;3755;59.316;18.092;2023-02-01T06:14:26;10.20;;;2.97;;
7426;SDS011;3755;59.316;18.092;2023-02-01T06:16:54;12.27;;;3.23;;
7426;SDS011;3755;59.316;18.092;2023-02-01T06:19:23;6.37;;;2.30;;
7426;SDS011;3755;59.316;18.092;2023-02-01T06:21:52;6.13;;;2.57;;
7426;SDS011;3755;59.316;18.092;2023-02-01T06:24:21;8.63;;;3.30;;
7426;SDS011;3755;59.316;18.092;2023-02-01T06:26:48;8.70;;;3.63;;
7426;SDS011;3755;59.316;18.092;2023-02-01T06:29:18;11.23;;;3.00;;
7426;SDS011;3755;59.316;18.092;2023-02-01T06:31:52;9.30;;;2.77;;
7426;SDS011;3755;59.316;18.092;2023-02-01T06:34:21;12.03;;;3.27;;
7426;SDS011;3755;59.316;18.092;2023-02-01T06:36:49;9.97;;;3.13;;
7426;SDS011;3755;59.316;18.092;2023-02-01T06:39:18;6.70;;;2.60;;
7426;SDS011;3755;59.316;18.092;2023-02-01T06:41:46;14.23;;;2.70;;
7426;SDS011;3755;59.316;18.092;2023-02-01T06:48:00;7.17;;;2.90;;
7426;SDS011;3755;59.316;18.092;2023-02-01T06:50:43;13.60;;;3.40;;
7426;SDS011;3755;59.316;18.092;2023-02-01T06:56:02;10.87;;;2.70;;
7426;SDS011;3755;59.316;18.092;2023-02-01T06:58:30;7.40;;;2.93;;
7426;SDS011;3755;59.316;18.092;2023-02-01T07:01:04;6.97;;;2.43;;
7426;SDS011;3755;59.316;18.092;2023-02-01T07:03:50;7.43;;;3.17;;
7426;SDS011;3755;59.316;18.092;2023-02-01T07:06:37;6.27;;;2.07;;
7426;SDS011;3755;59.316;18.092;2023-02-01T07:09:21;8.17;;;2.53;;
7426;SDS011;3755;59.316;18.092;2023-02-01T07:12:05;8.57;;;2.73;;
7426;SDS011;3755;59.316;18.092;2023-02-01T07:14:53;10.60;;;2.87;;
7426;SDS011;3755;59.316;18.092;2023-02-01T07:17:24;9.47;;;3.13;;
7426;SDS011;3755;59.316;18.092;2023-02-01T07:23:15;9.60;;;2.57;;
7426;SDS011;3755;59.316;18.092;2023-02-01T07:29:23;7.67;;;2.17;;
7426;SDS011;3755;59.316;18.092;2023-02-01T07:32:05;4.80;;;2.00;;
7426;SDS011;3755;59.316;18.092;2023-02-01T07:34:35;7.03;;;2.30;;
7426;SDS011;3755;59.316;18.092;2023-02-01T07:37:02;6.07;;;2.00;;
7426;SDS011;3755;59.316;18.092;2023-02-01T07:42:50;4.87;;;2.13;;
7426;SDS011;3755;59.316;18.092;2023-02-01T07:45:37;5.70;;;1.83;;
7426;SDS011;3755;59.316;18.092;2023-02-01T07:48:10;6.30;;;2.00;;
7426;SDS011;3755;59.316;18.092;2023-02-01T07:50:38;4.13;;;1.80;;
7426;SDS011;3755;59.316;18.092;2023-02-01T07:53:06;14.23;;;2.53;;
7426;SDS011;3755;59.316;18.092;2023-02-01T07:55:34;6.17;;;2.03;;
7426;SDS011;3755;59.316;18.092;2023-02-01T08:01:14;4.07;;;1.93;;
7426;SDS011;3755;59.316;18.092;2023-02-01T08:03:52;6.10;;;2.10;;
7426;SDS011;3755;59.316;18.092;2023-02-01T08:06:29;8.37;;;2.53;;
7426;SDS011;3755;59.316;18.092;2023-02-01T08:08:57;7.37;;;2.20;;
7426;SDS011;3755;59.316;18.092;2023-02-01T08:11:27;6.77;;;2.40;;
7426;SDS011;3755;59.316;18.092;2023-02-01T08:17:29;7.77;;;2.63;;
7426;SDS011;3755;59.316;18.092;2023-02-01T08:20:00;4.97;;;2.03;;
7426;SDS011;3755;59.316;18.092;2023-02-01T08:22:31;5.60;;;2.30;;
7426;SDS011;3755;59.316;18.092;2023-02-01T08:25:12;9.70;;;2.00;;
7426;SDS011;3755;59.316;18.092;2023-02-01T08:30:47;9.07;;;1.90;;
7426;SDS011;3755;59.316;18.092;2023-02-01T08:33:17;7.17;;;2.07;;
7426;SDS011;3755;59.316;18.092;2023-02-01T08:35:44;9.37;;;2.63;;
7426;SDS011;3755;59.316;18.092;2023-02-01T08:38:11;8.87;;;2.63;;
7426;SDS011;3755;59.316;18.092;2023-02-01T08:40:39;12.40;;;2.90;;
7426;SDS011;3755;59.316;18.092;2023-02-01T08:43:19;6.20;;;2.10;;
7426;SDS011;3755;59.316;18.092;2023-02-01T08:45:47;8.37;;;2.53;;
7426;SDS011;3755;59.316;18.092;2023-02-01T08:48:21;8.90;;;2.20;;
7426;SDS011;3755;59.316;18.092;2023-02-01T08:51:22;11.77;;;2.40;;
7426;SDS011;3755;59.316;18.092;2023-02-01T08:54:02;4.53;;;1.80;;
7426;SDS011;3755;59.316;18.092;2023-02-01T08:56:31;12.90;;;2.40;;
7426;SDS011;3755;59.316;18.092;2023-02-01T08:59:38;7.47;;;1.80;;
7426;SDS011;3755;59.316;18.092;2023-02-01T09:05:28;8.57;;;2.00;;
7426;SDS011;3755;59.316;18.092;2023-02-01T09:11:04;8.37;;;2.87;;
7426;SDS011;3755;59.316;18.092;2023-02-01T09:13:38;9.77;;;2.10;;
7426;SDS011;3755;59.316;18.092;2023-02-01T09:16:26;5.13;;;1.63;;
7426;SDS011;3755;59.316;18.092;2023-02-01T09:24:52;5.70;;;2.20;;
7426;SDS011;3755;59.316;18.092;2023-02-01T09:30:03;5.93;;;1.70;;
7426;SDS011;3755;59.316;18.092;2023-02-01T09:32:32;3.70;;;1.63;;
7426;SDS011;3755;59.316;18.092;2023-02-01T09:35:14;3.87;;;1.70;;
7426;SDS011;3755;59.316;18.092;2023-02-01T09:37:44;6.60;;;2.07;;
7426;SDS011;3755;59.316;18.092;2023-02-01T09:40:13;6.57;;;2.00;;
7426;SDS011;3755;59.316;18.092;2023-02-01T09:42:59;7.27;;;2.30;;
7426;SDS011;3755;59.316;18.092;2023-02-01T09:45:57;6.37;;;1.70;;
7426;SDS011;3755;59.316;18.092;2023-02-01T09:48:32;5.13;;;1.80;;
7426;SDS011;3755;59.316;18.092;2023-02-01T09:51:19;12.27;;;2.23;;
7426;SDS011;3755;59.316;18.092;2023-02-01T09:54:04;9.57;;;2.40;;
7426;SDS011;3755;59.316;18.092;2023-02-01T09:56:52;8.17;;;2.30;;
7426;SDS011;3755;59.316;18.092;2023-02-01T09:59:29;6.00;;;2.60;;
7426;SDS011;3755;59.316;18.092;2023-02-01T10:02:16;9.47;;;2.33;;
7426;SDS011;3755;59.316;18.092;2023-02-01T10:05:00;4.50;;;2.10;;
7426;SDS011;3755;59.316;18.092;2023-02-01T10:07:34;10.40;;;2.47;;
7426;SDS011;3755;59.316;18.092;2023-02-01T10:10:13;4.37;;;2.37;;
7426;SDS011;3755;59.316;18.092;2023-02-01T10:12:59;10.07;;;3.17;;
7426;SDS011;3755;59.316;18.092;2023-02-01T10:15:48;6.77;;;2.23;;
7426;SDS011;3755;59.316;18.092;2023-02-01T10:18:32;5.63;;;2.70;;
7426;SDS011;3755;59.316;18.092;2023-02-01T10:22:07;6.13;;;2.10;;
7426;SDS011;3755;59.316;18.092;2023-02-01T10:24:39;6.43;;;2.00;;
7426;SDS011;3755;59.316;18.092;2023-02-01T10:27:16;9.87;;;2.10;;
7426;SDS011;3755;59.316;18.092;2023-02-01T10:29:50;7.70;;;2.00;;
7426;SDS011;3755;59.316;18.092;2023-02-01T10:32:22;10.57;;;2.83;;
7426;SDS011;3755;59.316;18.092;2023-02-01T10:35:02;7.80;;;2.53;;
7426;SDS011;3755;59.316;18.092;2023-02-01T10:37:50;13.67;;;5.17;;
7426;SDS011;3755;59.316;18.092;2023-02-01T10:40:19;11.00;;;3.30;;
7426;SDS011;3755;59.316;18.092;2023-02-01T10:43:03;7.80;;;2.90;;
7426;SDS011;3755;59.316;18.092;2023-02-01T10:45:34;10.20;;;2.70;;
7426;SDS011;3755;59.316;18.092;2023-02-01T10:48:14;8.40;;;2.63;;
7426;SDS011;3755;59.316;18.092;2023-02-01T10:50:57;5.83;;;2.57;;
7426;SDS011;3755;59.316;18.092;2023-02-01T10:53:29;14.30;;;3.10;;
7426;SDS011;3755;59.316;18.092;2023-02-01T10:56:18;11.60;;;3.30;;
7426;SDS011;3755;59.316;18.092;2023-02-01T10:58:59;9.63;;;3.17;;
7426;SDS011;3755;59.316;18.092;2023-02-01T11:02:13;10.23;;;2.90;;
7426;SDS011;3755;59.316;18.092;2023-02-01T11:08:45;8.03;;;3.60;;
7426;SDS011;3755;59.316;18.092;2023-02-01T11:11:52;11.53;;;3.37;;
7426;SDS011;3755;59.316;18.092;2023-02-01T11:18:14;6.33;;;3.43;;
7426;SDS011;3755;59.316;18.092;2023-02-01T11:20:54;6.03;;;2.97;;
7426;SDS011;3755;59.316;18.092;2023-02-01T11:23:28;11.10;;;3.37;;
7426;SDS011;3755;59.316;18.092;2023-02-01T11:25:59;8.80;;;3.47;;
7426;SDS011;3755;59.316;18.092;2023-02-01T11:31:16;8.07;;;2.90;;
7426;SDS011;3755;59.316;18.092;2023-02-01T11:40:25;8.60;;;3.07;;
7426;SDS011;3755;59.316;18.092;2023-02-01T11:43:22;8.00;;;3.30;;
7426;SDS011;3755;59.316;18.092;2023-02-01T11:46:16;16.77;;;4.33;;
7426;SDS011;3755;59.316;18.092;2023-02-01T11:48:51;5.10;;;2.83;;
7426;SDS011;3755;59.316;18.092;2023-02-01T11:51:29;5.13;;;2.73;;
7426;SDS011;3755;59.316;18.092;2023-02-01T11:54:29;4.77;;;2.53;;
7426;SDS011;3755;59.316;18.092;2023-02-01T12:00:26;15.27;;;3.27;;
7426;SDS011;3755;59.316;18.092;2023-02-01T12:03:58;6.63;;;2.93;;
7426;SDS011;3755;59.316;18.092;2023-02-01T12:06:54;5.37;;;2.20;;
7426;SDS011;3755;59.316;18.092;2023-02-01T12:09:44;8.07;;;2.43;;
7426;SDS011;3755;59.316;18.092;2023-02-01T12:16:06;7.97;;;3.17;;
7426;SDS011;3755;59.316;18.092;2023-02-01T12:19:14;9.60;;;3.30;;
7426;SDS011;3755;59.316;18.092;2023-02-01T12:22:12;6.83;;;2.70;;
7426;SDS011;3755;59.316;18.092;2023-02-01T12:25:08;5.33;;;2.07;;
7426;SDS011;3755;59.316;18.092;2023-02-01T12:27:57;5.57;;;2.77;;
7426;SDS011;3755;59.316;18.092;2023-02-01T12:33:45;4.50;;;2.40;;
7426;SDS011;3755;59.316;18.092;2023-02-01T12:36:43;6.47;;;2.67;;
7426;SDS011;3755;59.316;18.092;2023-02-01T12:39:22;6.33;;;3.03;;
7426;SDS011;3755;59.316;18.092;2023-02-01T12:52:58;6.27;;;3.23;;
7426;SDS011;3755;59.316;18.092;2023-02-01T12:55:47;5.67;;;3.07;;
7426;SDS011;3755;59.316;18.092;2023-02-01T12:58:18;6.03;;;2.23;;
7426;SDS011;3755;59.316;18.092;2023-02-01T13:01:06;6.53;;;2.83;;
7426;SDS011;3755;59.316;18.092;2023-02-01T13:03:38;3.87;;;2.40;;
7426;SDS011;3755;59.316;18.092;2023-02-01T13:06:12;5.47;;;2.40;;
7426;SDS011;3755;59.316;18.092;2023-02-01T13:08:52;7.20;;;2.30;;
7426;SDS011;3755;59.316;18.092;2023-02-01T13:11:42;2.10;;;1.90;;
7426;SDS011;3755;59.316;18.092;2023-02-01T13:14:15;7.10;;;1.87;;
7426;SDS011;3755;59.316;18.092;2023-02-01T13:16:52;7.77;;;2.10;;
7426;SDS011;3755;59.316;18.092;2023-02-01T13:19:34;7.60;;;2.20;;
7426;SDS011;3755;59.316;18.092;2023-02-01T13:22:10;3.17;;;2.00;;
7426;SDS011;3755;59.316;18.092;2023-02-01T13:24:44;7.50;;;2.07;;
7426;SDS011;3755;59.316;18.092;2023-02-01T13:27:30;3.67;;;2.40;;
7426;SDS011;3755;59.316;18.092;2023-02-01T13:29:59;6.40;;;1.77;;
7426;SDS011;3755;59.316;18.092;2023-02-01T13:35:56;5.77;;;1.83;;
7426;SDS011;3755;59.316;18.092;2023-02-01T13:38:53;6.03;;;1.90;;
7426;SDS011;3755;59.316;18.092;2023-02-01T13:41:56;5.57;;;2.30;;
7426;SDS011;3755;59.316;18.092;2023-02-01T13:44:36;3.63;;;1.57;;
7426;SDS011;3755;59.316;18.092;2023-02-01T13:47:12;7.50;;;1.77;;
7426;SDS011;3755;59.316;18.092;2023-02-01T13:49:52;3.50;;;1.93;;
7426;SDS011;3755;59.316;18.092;2023-02-01T13:52:38;7.43;;;2.07;;
7426;SDS011;3755;59.316;18.092;2023-02-01T13:55:24;3.03;;;1.87;;
7426;SDS011;3755;59.316;18.092;2023-02-01T14:01:33;4.53;;;2.23;;
7426;SDS011;3755;59.316;18.092;2023-02-01T14:07:19;5.90;;;1.87;;
7426;SDS011;3755;59.316;18.092;2023-02-01T14:16:42;4.13;;;1.57;;
7426;SDS011;3755;59.316;18.092;2023-02-01T14:19:23;3.77;;;2.27;;
7426;SDS011;3755;59.316;18.092;2023-02-01T14:21:55;4.83;;;2.20;;
7426;SDS011;3755;59.316;18.092;2023-02-01T14:24:37;4.57;;;1.60;;
7426;SDS011;3755;59.316;18.092;2023-02-01T14:27:15;4.90;;;1.67;;
7426;SDS011;3755;59.316;18.092;2023-02-01T14:32:53;5.50;;;1.90;;
7426;SDS011;3755;59.316;18.092;2023-02-01T14:36:21;11.17;;;3.17;;
7426;SDS011;3755;59.316;18.092;2023-02-01T14:39:04;12.07;;;3.40;;
7426;SDS011;3755;59.316;18.092;2023-02-01T14:45:48;2.90;;;2.10;;
7426;SDS011;3755;59.316;18.092;2023-02-01T14:48:55;5.37;;;1.67;;
7426;SDS011;3755;59.316;18.092;2023-02-01T14:51:43;3.00;;;1.73;;
7426;SDS011;3755;59.316;18.092;2023-02-01T14:54:28;2.97;;;1.67;;
7426;SDS011;3755;59.316;18.092;2023-02-01T14:57:13;4.03;;;1.87;;
7426;SDS011;3755;59.316;18.092;2023-02-01T14:59:46;3.23;;;1.50;;
7426;SDS011;3755;59.316;18.092;2023-02-01T15:02:20;3.10;;;1.67;;
7426;SDS011;3755;59.316;18.092;2023-02-01T15:05:16;3.30;;;1.80;;
7426;SDS011;3755;59.316;18.092;2023-02-01T15:08:13;4.20;;;1.63;;
7426;SDS011;3755;59.316;18.092;2023-02-01T15:10:44;5.40;;;1.73;;
7426;SDS011;3755;59.316;18.092;2023-02-01T15:13:20;4.73;;;2.10;;
7426;SDS011;3755;59.316;18.092;2023-02-01T15:16:08;4.70;;;1.73;;
7426;SDS011;3755;59.316;18.092;2023-02-01T15:19:11;4.30;;;1.70;;
7426;SDS011;3755;59.316;18.092;2023-02-01T15:34:58;6.37;;;2.20;;
7426;SDS011;3755;59.316;18.092;2023-02-01T15:37:26;4.37;;;1.70;;
7426;SDS011;3755;59.316;18.092;2023-02-01T15:40:05;5.03;;;1.50;;
7426;SDS011;3755;59.316;18.092;2023-02-01T15:42:49;3.23;;;1.83;;
7426;SDS011;3755;59.316;18.092;2023-02-01T15:45:19;3.27;;;1.87;;
7426;SDS011;3755;59.316;18.092;2023-02-01T15:47:51;4.77;;;2.07;;
7426;SDS011;3755;59.316;18.092;2023-02-01T15:50:20;4.13;;;1.60;;
7426;SDS011;3755;59.316;18.092;2023-02-01T15:52:50;3.17;;;1.50;;
7426;SDS011;3755;59.316;18.092;2023-02-01T15:55:21;4.90;;;1.60;;
7426;SDS011;3755;59.316;18.092;2023-02-01T15:57:56;3.47;;;1.60;;
7426;SDS011;3755;59.316;18.092;2023-02-01T16:00:25;4.90;;;1.70;;
7426;SDS011;3755;59.316;18.092;2023-02-01T16:02:57;11.73;;;1.73;;
7426;SDS011;3755;59.316;18.092;2023-02-01T16:05:32;3.73;;;1.80;;
7426;SDS011;3755;59.316;18.092;2023-02-01T16:08:15;5.53;;;1.40;;
7426;SDS011;3755;59.316;18.092;2023-02-01T16:14:03;4.20;;;1.63;;
7426;SDS011;3755;59.316;18.092;2023-02-01T16:16:31;6.40;;;1.60;;
7426;SDS011;3755;59.316;18.092;2023-02-01T16:19:00;3.57;;;1.67;;
7426;SDS011;3755;59.316;18.092;2023-02-01T16:21:30;3.60;;;1.50;;
7426;SDS011;3755;59.316;18.092;2023-02-01T16:24:00;3.23;;;1.53;;
7426;SDS011;3755;59.316;18.092;2023-02-01T16:26:41;5.40;;;1.50;;
7426;SDS011;3755;59.316;18.092;2023-02-01T16:29:23;3.03;;;1.33;;
7426;SDS011;3755;59.316;18.092;2023-02-01T16:32:03;4.37;;;1.33;;
7426;SDS011;3755;59.316;18.092;2023-02-01T16:34:32;4.50;;;1.37;;
7426;SDS011;3755;59.316;18.092;2023-02-01T16:37:05;4.47;;;1.60;;
7426;SDS011;3755;59.316;18.092;2023-02-01T16:39:38;3.17;;;1.10;;
7426;SDS011;3755;59.316;18.092;2023-02-01T16:42:10;2.83;;;1.70;;
7426;SDS011;3755;59.316;18.092;2023-02-01T16:44:41;2.60;;;1.40;;
7426;SDS011;3755;59.316;18.092;2023-02-01T16:47:12;3.43;;;1.50;;
7426;SDS011;3755;59.316;18.092;2023-02-01T16:49:50;5.30;;;1.70;;
7426;SDS011;3755;59.316;18.092;2023-02-01T16:52:19;2.73;;;1.40;;
7426;SDS011;3755;59.316;18.092;2023-02-01T16:58:17;2.83;;;1.40;;
7426;SDS011;3755;59.316;18.092;2023-02-01T17:00:47;4.73;;;1.60;;
7426;SDS011;3755;59.316;18.092;2023-02-01T17:03:16;3.80;;;1.63;;
7426;SDS011;3755;59.316;18.092;2023-02-01T17:05:49;3.03;;;1.70;;
7426;SDS011;3755;59.316;18.092;2023-02-01T17:08:29;5.13;;;1.80;;
7426;SDS011;3755;59.316;18.092;2023-02-01T17:11:03;6.83;;;2.43;;
7426;SDS011;3755;59.316;18.092;2023-02-01T17:13:34;5.20;;;2.63;;
7426;SDS011;3755;59.316;18.092;2023-02-01T17:16:04;7.53;;;3.20;;
7426;SDS011;3755;59.316;18.092;2023-02-01T17:18:53;8.53;;;2.07;;
7426;SDS011;3755;59.316;18.092;2023-02-01T17:21:29;7.13;;;2.40;;
7426;SDS011;3755;59.316;18.092;2023-02-01T17:24:01;3.77;;;1.93;;
7426;SDS011;3755;59.316;18.092;2023-02-01T17:26:29;2.90;;;1.53;;
7426;SDS011;3755;59.316;18.092;2023-02-01T17:28:57;9.27;;;2.17;;
7426;SDS011;3755;59.316;18.092;2023-02-01T17:31:25;4.97;;;2.07;;
7426;SDS011;3755;59.316;18.092;2023-02-01T17:33:56;5.37;;;1.90;;
7426;SDS011;3755;59.316;18.092;2023-02-01T17:36:26;4.43;;;2.07;;
7426;SDS011;3755;59.316;18.092;2023-02-01T17:39:01;4.73;;;2.23;;
7426;SDS011;3755;59.316;18.092;2023-02-01T17:41:30;3.37;;;1.97;;
7426;SDS011;3755;59.316;18.092;2023-02-01T17:43:59;4.27;;;1.87;;
7426;SDS011;3755;59.316;18.092;2023-02-01T17:46:36;4.57;;;1.87;;
7426;SDS011;3755;59.316;18.092;2023-02-01T17:49:04;5.00;;;2.10;;
7426;SDS011;3755;59.316;18.092;2023-02-01T17:51:38;5.27;;;2.07;;
7426;SDS011;3755;59.316;18.092;2023-02-01T17:54:09;4.97;;;2.30;;
7426;SDS011;3755;59.316;18.092;2023-02-01T17:56:50;5.43;;;2.00;;
7426;SDS011;3755;59.316;18.092;2023-02-01T17:59:33;5.63;;;2.30;;
7426;SDS011;3755;59.316;18.092;2023-02-01T18:02:00;5.57;;;2.23;;
7426;SDS011;3755;59.316;18.092;2023-02-01T18:04:28;3.37;;;2.40;;
7426;SDS011;3755;59.316;18.092;2023-02-01T18:06:58;4.63;;;2.40;;
7426;SDS011;3755;59.316;18.092;2023-02-01T18:09:26;8.47;;;3.40;;